createdAt,value
2022-09-28T00:01:18.866Z,12.30
2022-09-28T00:03:47.876Z,12.30
2022-09-28T00:06:19.421Z,12.30
2022-09-28T00:08:50.124Z,12.30
2022-09-28T00:11:21.768Z,12.30
2022-09-28T00:13:52.557Z,12.30
2022-09-28T00:16:23.255Z,12.30
2022-09-28T00:18:52.326Z,12.30
2022-09-28T00:21:22.765Z,12.30
2022-09-28T00:24:11.345Z,12.30
2022-09-28T00:26:42.647Z,12.40
2022-09-28T00:29:18.214Z,12.40
2022-09-28T00:31:46.733Z,12.40
2022-09-28T00:34:15.816Z,12.40
2022-09-28T00:36:46.715Z,12.40
2022-09-28T00:39:16.226Z,12.40
2022-09-28T00:41:46.781Z,12.40
2022-09-28T00:44:37.903Z,12.40
2022-09-28T00:47:21.072Z,12.40
2022-09-28T00:49:54.361Z,12.40
2022-09-28T00:52:27.882Z,12.50
2022-09-28T00:54:58.455Z,12.50
2022-09-28T00:57:28.756Z,12.50
2022-09-28T00:59:57.461Z,12.50
2022-09-28T01:02:25.640Z,12.40
2022-09-28T01:04:54.274Z,12.50
2022-09-28T01:07:23.614Z,12.40
2022-09-28T01:09:54.013Z,12.40
2022-09-28T01:12:22.091Z,12.40
2022-09-28T01:14:53.442Z,12.40
2022-09-28T01:17:27.210Z,12.40
2022-09-28T01:20:19.896Z,12.30
2022-09-28T01:23:35.823Z,12.30
2022-09-28T01:26:44.521Z,12.30
2022-09-28T01:29:20.556Z,12.30
2022-09-28T01:31:56.679Z,12.30
2022-09-28T01:34:30.596Z,12.30
2022-09-28T01:37:02.763Z,12.30
2022-09-28T01:39:35.028Z,12.30
2022-09-28T01:42:09.316Z,12.30
2022-09-28T01:44:42.350Z,12.30
2022-09-28T01:47:13.484Z,12.30
2022-09-28T01:49:47.129Z,12.30
2022-09-28T01:52:20.256Z,12.30
2022-09-28T01:54:53.626Z,12.30
2022-09-28T01:57:27.032Z,12.30
2022-09-28T02:00:02.332Z,12.30
2022-09-28T02:02:35.339Z,12.30
2022-09-28T02:05:09.380Z,12.30
2022-09-28T02:07:42.512Z,12.30
2022-09-28T02:10:15.834Z,12.30
2022-09-28T02:12:49.692Z,12.30
2022-09-28T02:15:24.379Z,12.20
2022-09-28T02:17:52.917Z,12.30
2022-09-28T02:20:24.088Z,12.30
2022-09-28T02:22:55.793Z,12.30
2022-09-28T02:25:31.939Z,12.30
2022-09-28T02:28:03.049Z,12.30
2022-09-28T02:30:34.739Z,12.40
2022-09-28T02:33:08.550Z,12.40
2022-09-28T02:35:36.806Z,12.50
2022-09-28T02:38:05.079Z,12.50
2022-09-28T02:40:34.794Z,12.50
2022-09-28T02:43:14.914Z,12.60
2022-09-28T02:46:06.974Z,12.60
2022-09-28T02:49:10.520Z,12.60
2022-09-28T02:51:59.000Z,12.70
2022-09-28T02:54:52.666Z,12.70
2022-09-28T02:57:32.850Z,12.70
2022-09-28T03:00:08.299Z,12.80
2022-09-28T03:02:45.286Z,12.80
2022-09-28T03:05:21.845Z,12.80
2022-09-28T03:07:58.491Z,12.80
2022-09-28T03:10:32.120Z,12.80
2022-09-28T03:13:00.691Z,12.80
2022-09-28T03:15:31.995Z,12.90
2022-09-28T03:18:00.729Z,12.90
2022-09-28T03:20:30.252Z,12.90
2022-09-28T03:23:23.332Z,12.80
2022-09-28T03:25:46.663Z,12.90
2022-09-28T03:28:14.778Z,12.90
2022-09-28T03:30:44.249Z,12.80
2022-09-28T03:33:12.363Z,12.80
2022-09-28T03:35:40.503Z,12.80
2022-09-28T03:38:08.575Z,12.80
2022-09-28T03:40:36.745Z,12.80
2022-09-28T03:43:04.877Z,12.80
2022-09-28T03:45:33.153Z,12.80
2022-09-28T03:48:02.898Z,12.80
2022-09-28T03:50:30.932Z,12.80
2022-09-28T03:53:03.944Z,12.80
2022-09-28T03:55:32.131Z,12.80
2022-09-28T03:58:00.377Z,12.70
2022-09-28T04:00:28.748Z,12.70
2022-09-28T04:02:56.961Z,12.70
2022-09-28T04:05:26.450Z,12.70
2022-09-28T04:07:57.831Z,12.70
2022-09-28T04:10:26.804Z,12.70
2022-09-28T04:12:56.535Z,12.70
2022-09-28T04:15:25.166Z,12.70
2022-09-28T04:17:55.733Z,12.70
2022-09-28T04:20:23.915Z,12.70
2022-09-28T04:22:53.405Z,12.60
2022-09-28T04:25:21.761Z,12.60
2022-09-28T04:28:08.085Z,12.60
2022-09-28T04:30:36.249Z,12.60
2022-09-28T04:33:04.437Z,12.60
2022-09-28T04:35:32.802Z,12.60
2022-09-28T04:38:02.328Z,12.60
2022-09-28T04:40:30.511Z,12.60
2022-09-28T04:42:58.873Z,12.60
2022-09-28T04:45:27.518Z,12.60
2022-09-28T04:47:55.897Z,12.60
2022-09-28T04:50:23.995Z,12.60
2022-09-28T04:52:52.587Z,12.60
2022-09-28T04:55:22.055Z,12.60
2022-09-28T04:57:50.196Z,12.50
2022-09-28T05:00:18.350Z,12.60
2022-09-28T05:02:46.582Z,12.60
2022-09-28T05:05:14.884Z,12.60
2022-09-28T05:07:43.014Z,12.50
2022-09-28T05:10:11.262Z,12.50
2022-09-28T05:12:40.758Z,12.50
2022-09-28T05:15:09.487Z,12.40
2022-09-28T05:17:37.548Z,12.40
2022-09-28T05:20:06.502Z,12.40
2022-09-28T05:22:34.818Z,12.40
2022-09-28T05:25:03.389Z,12.40
2022-09-28T05:27:31.527Z,12.30
2022-09-28T05:30:00.936Z,12.30
2022-09-28T05:32:29.214Z,12.30
2022-09-28T05:34:57.562Z,12.30
2022-09-28T05:37:25.772Z,12.30
2022-09-28T05:39:53.988Z,12.30
2022-09-28T05:42:22.061Z,12.30
2022-09-28T05:44:50.206Z,12.30
2022-09-28T05:47:19.701Z,12.30
2022-09-28T05:49:48.006Z,12.40
2022-09-28T05:52:16.308Z,12.40
2022-09-28T05:54:44.485Z,12.40
2022-09-28T05:57:12.909Z,12.40
2022-09-28T05:59:41.051Z,12.40
2022-09-28T06:02:11.135Z,12.50
2022-09-28T06:04:40.828Z,12.50
2022-09-28T06:07:08.932Z,12.50
2022-09-28T06:09:36.971Z,12.50
2022-09-28T06:12:05.129Z,12.60
2022-09-28T06:14:33.192Z,12.60
2022-09-28T06:17:01.301Z,12.60
2022-09-28T06:19:29.481Z,12.70
2022-09-28T06:21:59.524Z,12.70
2022-09-28T06:24:27.691Z,12.70
2022-09-28T06:26:55.795Z,12.70
2022-09-28T06:29:24.082Z,12.70
2022-09-28T06:31:52.555Z,12.70
2022-09-28T06:34:21.507Z,12.80
2022-09-28T06:36:49.702Z,12.80
2022-09-28T06:39:19.311Z,12.80
2022-09-28T06:41:47.687Z,12.80
2022-09-28T06:44:15.854Z,12.80
2022-09-28T06:46:44.091Z,12.80
2022-09-28T06:49:14.198Z,12.80
2022-09-28T06:51:47.687Z,12.90
2022-09-28T06:54:16.464Z,12.90
2022-09-28T06:56:46.069Z,12.90
2022-09-28T06:59:14.279Z,12.90
2022-09-28T07:01:42.458Z,12.90
2022-09-28T07:04:10.713Z,13.00
2022-09-28T07:06:39.303Z,13.00
2022-09-28T07:09:28.705Z,13.00
2022-09-28T07:11:57.026Z,13.00
2022-09-28T07:14:46.260Z,13.00
2022-09-28T07:17:14.787Z,13.00
2022-09-28T07:19:43.267Z,13.00
2022-09-28T07:22:18.843Z,13.00
2022-09-28T07:24:48.742Z,13.00
2022-09-28T07:27:18.204Z,13.00
2022-09-28T07:29:46.366Z,13.00
2022-09-28T07:32:14.536Z,13.00
2022-09-28T07:34:43.909Z,13.10
2022-09-28T07:37:13.330Z,13.10
2022-09-28T07:39:59.241Z,13.10
2022-09-28T07:42:30.160Z,13.10
2022-09-28T07:44:58.385Z,13.20
2022-09-28T07:47:33.857Z,13.20
2022-09-28T07:50:03.422Z,13.20
2022-09-28T07:52:35.258Z,13.20
2022-09-28T07:55:07.230Z,13.30
2022-09-28T07:57:36.965Z,13.30
2022-09-28T08:00:08.165Z,13.30
2022-09-28T08:02:36.513Z,13.30
2022-09-28T08:05:05.095Z,13.30
2022-09-28T08:07:34.547Z,13.30
2022-09-28T08:10:02.611Z,13.30
2022-09-28T08:12:30.822Z,13.30
2022-09-28T08:15:00.759Z,13.40
2022-09-28T08:17:29.212Z,13.40
2022-09-28T08:20:14.428Z,13.40
2022-09-28T08:22:42.559Z,13.40
2022-09-28T08:25:10.722Z,13.40
2022-09-28T08:27:38.958Z,13.50
2022-09-28T08:30:10.029Z,13.50
2022-09-28T08:32:38.157Z,13.50
2022-09-28T08:35:06.836Z,13.60
2022-09-28T08:37:34.895Z,13.60
2022-09-28T08:40:03.203Z,13.70
2022-09-28T08:42:35.774Z,13.70
2022-09-28T08:45:12.804Z,13.80
2022-09-28T08:48:08.043Z,13.80
2022-09-28T08:50:46.562Z,13.90
2022-09-28T08:53:28.523Z,13.90
2022-09-28T08:55:56.882Z,13.90
2022-09-28T08:58:30.381Z,14.00
2022-09-28T09:01:00.408Z,14.00
2022-09-28T09:03:33.761Z,14.00
2022-09-28T09:06:09.050Z,14.00
2022-09-28T09:08:50.054Z,14.10
2022-09-28T09:11:32.274Z,14.10
2022-09-28T09:14:22.926Z,14.10
2022-09-28T09:17:00.871Z,14.10
2022-09-28T09:19:36.780Z,14.10
2022-09-28T09:22:16.953Z,14.20
2022-09-28T09:24:50.995Z,14.20
2022-09-28T09:27:45.862Z,14.30
2022-09-28T09:30:20.102Z,14.30
2022-09-28T09:33:05.219Z,14.30
2022-09-28T09:36:08.278Z,14.40
2022-09-28T09:38:58.243Z,14.40
2022-09-28T09:41:39.714Z,14.40
2022-09-28T09:44:34.010Z,14.40
2022-09-28T09:47:08.131Z,14.30
2022-09-28T09:49:41.729Z,14.30
2022-09-28T09:52:17.875Z,14.30
2022-09-28T09:54:52.112Z,14.40
2022-09-28T09:57:24.701Z,14.40
2022-09-28T09:59:53.722Z,14.40
2022-09-28T10:02:26.369Z,14.40
2022-09-28T10:04:58.602Z,14.40
2022-09-28T10:07:30.714Z,14.40
2022-09-28T10:10:01.772Z,14.40
2022-09-28T10:12:31.097Z,14.40
2022-09-28T10:14:59.302Z,14.30
2022-09-28T10:17:27.910Z,14.30
2022-09-28T10:19:57.910Z,14.30
2022-09-28T10:22:28.851Z,14.30
2022-09-28T10:24:58.511Z,14.30
2022-09-28T10:27:30.696Z,14.30
2022-09-28T10:30:02.979Z,14.30
2022-09-28T10:32:40.113Z,14.30
2022-09-28T10:35:31.404Z,14.30
2022-09-28T10:38:03.436Z,14.30
2022-09-28T10:40:41.643Z,14.30
2022-09-28T10:43:19.507Z,14.30
2022-09-28T10:45:47.776Z,14.20
2022-09-28T10:48:20.635Z,14.30
2022-09-28T10:51:01.777Z,14.30
2022-09-28T10:53:29.831Z,14.30
2022-09-28T10:56:01.291Z,14.40
2022-09-28T10:58:34.061Z,14.40
2022-09-28T11:01:10.457Z,14.50
2022-09-28T11:03:49.969Z,14.60
2022-09-28T11:06:26.052Z,14.60
2022-09-28T11:08:56.023Z,14.60
2022-09-28T11:11:25.248Z,14.60
2022-09-28T11:13:55.446Z,14.60
2022-09-28T11:16:27.472Z,14.60
2022-09-28T11:18:56.059Z,14.60
2022-09-28T11:21:27.818Z,14.70
2022-09-28T11:24:05.821Z,14.70
2022-09-28T11:26:42.500Z,14.70
2022-09-28T11:29:22.225Z,14.70
2022-09-28T11:31:50.757Z,14.70
2022-09-28T11:34:36.507Z,14.70
2022-09-28T11:37:31.645Z,14.70
2022-09-28T11:40:09.787Z,14.70
2022-09-28T11:42:49.288Z,14.70
2022-09-28T11:45:33.536Z,14.70
2022-09-28T11:48:04.198Z,14.80
2022-09-28T11:50:49.545Z,14.80
2022-09-28T11:53:26.220Z,14.70
2022-09-28T11:55:59.724Z,14.80
2022-09-28T11:58:32.406Z,14.80
2022-09-28T12:01:08.670Z,14.80
2022-09-28T12:03:43.074Z,14.80
2022-09-28T12:06:17.136Z,14.80
2022-09-28T12:08:53.463Z,14.80
2022-09-28T12:11:26.385Z,14.80
2022-09-28T12:13:57.495Z,14.90
2022-09-28T12:19:20.310Z,14.90
2022-09-28T12:21:52.124Z,15.00
2022-09-28T12:24:27.697Z,15.00
2022-09-28T12:27:00.643Z,15.00
2022-09-28T12:29:33.748Z,15.00
2022-09-28T12:32:09.244Z,15.10
2022-09-28T12:34:37.497Z,15.10
2022-09-28T12:37:24.487Z,15.10
2022-09-28T12:40:23.167Z,15.20
2022-09-28T12:43:06.876Z,15.20
2022-09-28T12:46:10.553Z,15.20
2022-09-28T12:51:51.388Z,15.10
2022-09-28T12:54:44.441Z,15.10
2022-09-28T12:57:37.426Z,15.10
2022-09-28T13:00:09.444Z,15.20
2022-09-28T13:03:07.872Z,15.20
2022-09-28T13:06:08.930Z,15.20
2022-09-28T13:08:49.035Z,15.20
2022-09-28T13:11:23.442Z,15.20
2022-09-28T13:14:06.728Z,15.20
2022-09-28T13:16:43.630Z,15.20
2022-09-28T13:19:18.457Z,15.20
2022-09-28T13:21:55.727Z,15.20
2022-09-28T13:24:32.709Z,15.10
2022-09-28T13:27:08.485Z,15.10
2022-09-28T13:29:40.999Z,15.10
2022-09-28T13:32:12.552Z,15.10
2022-09-28T13:34:40.840Z,15.10
2022-09-28T13:37:24.179Z,15.10
2022-09-28T13:39:55.127Z,15.00
2022-09-28T13:42:42.220Z,15.00
2022-09-28T13:45:35.189Z,15.00
2022-09-28T13:48:15.330Z,15.00
2022-09-28T13:51:08.775Z,15.00
2022-09-28T13:53:47.738Z,14.90
2022-09-28T13:56:29.706Z,15.00
2022-09-28T13:59:03.045Z,15.00
2022-09-28T14:01:39.792Z,15.00
2022-09-28T14:04:19.678Z,15.00
2022-09-28T14:06:55.501Z,15.00
2022-09-28T14:09:28.064Z,15.10
2022-09-28T14:11:58.391Z,15.10
2022-09-28T14:14:46.023Z,15.20
2022-09-28T14:17:51.227Z,15.20
2022-09-28T14:20:26.577Z,15.20
2022-09-28T14:23:27.665Z,15.20
2022-09-28T14:26:21.102Z,15.20
2022-09-28T14:29:04.528Z,15.30
2022-09-28T14:31:35.229Z,15.30
2022-09-28T14:34:06.009Z,15.40
2022-09-28T14:36:59.633Z,15.40
2022-09-28T14:39:49.129Z,15.40
2022-09-28T14:42:20.707Z,15.40
2022-09-28T14:45:21.375Z,15.40
2022-09-28T14:48:15.193Z,15.50
2022-09-28T14:50:43.633Z,15.40
2022-09-28T14:53:16.508Z,15.50
2022-09-28T14:55:50.380Z,15.50
2022-09-28T14:58:25.159Z,15.50
2022-09-28T15:00:59.780Z,15.50
2022-09-28T15:03:31.104Z,15.40
2022-09-28T15:05:59.486Z,15.50
2022-09-28T15:08:39.544Z,15.40
2022-09-28T15:11:13.414Z,15.40
2022-09-28T15:13:41.686Z,15.40
2022-09-28T15:16:12.331Z,15.40
2022-09-28T15:19:09.010Z,15.40
2022-09-28T15:21:38.683Z,15.40
2022-09-28T15:24:30.620Z,15.40
2022-09-28T15:26:59.683Z,15.30
2022-09-28T15:29:31.318Z,15.30
2022-09-28T15:31:59.797Z,15.40
2022-09-28T15:34:49.328Z,15.30
2022-09-28T15:37:22.060Z,15.30
2022-09-28T15:39:53.794Z,15.30
2022-09-28T15:42:22.951Z,15.30
2022-09-28T15:45:03.574Z,15.30
2022-09-28T15:47:33.090Z,15.30
2022-09-28T15:50:03.026Z,15.30
2022-09-28T15:52:37.530Z,15.40
2022-09-28T15:55:20.584Z,15.40
2022-09-28T15:57:49.068Z,15.40
2022-09-28T16:00:28.797Z,15.40
2022-09-28T16:03:01.785Z,15.40
2022-09-28T16:05:37.439Z,15.40
2022-09-28T16:08:07.027Z,15.30
2022-09-28T16:10:37.152Z,15.30
2022-09-28T16:13:23.952Z,15.30
2022-09-28T16:15:59.768Z,15.30
2022-09-28T16:18:30.279Z,15.20
2022-09-28T16:21:21.432Z,15.20
2022-09-28T16:23:55.688Z,15.20
2022-09-28T16:26:32.322Z,15.10
2022-09-28T16:29:00.507Z,15.10
2022-09-28T16:31:34.785Z,15.10
2022-09-28T16:34:19.794Z,15.00
2022-09-28T16:36:49.741Z,15.00
2022-09-28T16:39:19.131Z,14.90
2022-09-28T16:41:52.835Z,14.90
2022-09-28T16:44:24.783Z,14.80
2022-09-28T16:46:55.134Z,14.80
2022-09-28T16:49:25.609Z,14.80
2022-09-28T16:51:54.270Z,14.70
2022-09-28T16:54:41.919Z,14.70
2022-09-28T16:57:13.289Z,14.70
2022-09-28T16:59:41.478Z,14.60
2022-09-28T17:02:42.179Z,14.60
2022-09-28T17:05:07.938Z,14.60
2022-09-28T17:07:36.240Z,14.50
2022-09-28T17:10:04.704Z,14.50
2022-09-28T17:12:34.246Z,14.50
2022-09-28T17:15:02.513Z,14.50
2022-09-28T17:17:31.555Z,14.50
2022-09-28T17:19:59.780Z,14.50
2022-09-28T17:22:27.903Z,14.40
2022-09-28T17:24:56.298Z,14.40
2022-09-28T17:27:24.621Z,14.40
2022-09-28T17:29:55.260Z,14.40
2022-09-28T17:32:23.380Z,14.40
2022-09-28T17:35:00.737Z,14.40
2022-09-28T17:37:36.242Z,14.30
2022-09-28T17:40:08.789Z,14.40
2022-09-28T17:42:36.882Z,14.30
2022-09-28T17:45:08.174Z,14.30
2022-09-28T17:47:36.356Z,14.30
2022-09-28T17:50:11.700Z,14.30
2022-09-28T17:52:41.768Z,14.30
2022-09-28T17:55:10.859Z,14.30
2022-09-28T17:57:39.105Z,14.30
2022-09-28T18:00:10.906Z,14.30
2022-09-28T18:02:39.065Z,14.30
2022-09-28T18:05:07.692Z,14.30
2022-09-28T18:07:35.851Z,14.30
2022-09-28T18:10:04.195Z,14.30
2022-09-28T18:12:32.335Z,14.20
2022-09-28T18:15:00.474Z,14.30
2022-09-28T18:17:29.965Z,14.20
2022-09-28T18:19:58.088Z,14.20
2022-09-28T18:22:26.184Z,14.20
2022-09-28T18:24:54.277Z,14.20
2022-09-28T18:27:22.517Z,14.20
2022-09-28T18:29:50.586Z,14.10
2022-09-28T18:32:18.740Z,14.10
2022-09-28T18:34:48.177Z,14.20
2022-09-28T18:37:16.277Z,14.20
2022-09-28T18:39:44.759Z,14.20
2022-09-28T18:42:14.923Z,14.20
2022-09-28T18:44:43.109Z,14.10
2022-09-28T18:47:15.073Z,14.20
2022-09-28T18:49:46.585Z,14.20
2022-09-28T18:52:16.375Z,14.20
2022-09-28T18:54:46.677Z,14.20
2022-09-28T18:57:15.263Z,14.20
2022-09-28T18:59:43.375Z,14.20
2022-09-28T19:02:11.921Z,14.10
2022-09-28T19:04:40.755Z,14.10
2022-09-28T19:07:09.460Z,14.10
2022-09-28T19:09:44.043Z,14.10
2022-09-28T19:12:12.232Z,14.10
2022-09-28T19:14:40.844Z,14.10
2022-09-28T19:17:10.045Z,14.10
2022-09-28T19:19:38.206Z,14.10
2022-09-28T19:22:06.727Z,14.10
2022-09-28T19:24:34.963Z,14.10
2022-09-28T19:27:04.619Z,14.10
2022-09-28T19:29:33.113Z,14.10
2022-09-28T19:32:01.462Z,14.10
2022-09-28T19:34:30.167Z,14.10
2022-09-28T19:36:58.534Z,14.10
2022-09-28T19:39:26.895Z,14.10
2022-09-28T19:41:57.567Z,14.10
2022-09-28T19:44:28.628Z,14.10
2022-09-28T19:46:58.535Z,14.10
2022-09-28T19:49:28.378Z,14.10
2022-09-28T19:52:14.620Z,14.10
2022-09-28T19:54:44.998Z,14.00
2022-09-28T19:57:14.442Z,14.10
2022-09-28T19:59:44.381Z,14.00
2022-09-28T20:02:13.358Z,14.00
2022-09-28T20:04:41.541Z,14.00
2022-09-28T20:07:09.781Z,14.00
2022-09-28T20:09:37.960Z,13.90
2022-09-28T20:12:06.279Z,13.90
2022-09-28T20:14:38.315Z,13.90
2022-09-28T20:17:10.626Z,13.90
2022-09-28T20:19:39.125Z,13.90
2022-09-28T20:22:07.598Z,13.90
2022-09-28T20:24:35.690Z,13.90
2022-09-28T20:27:03.800Z,13.90
2022-09-28T20:29:33.458Z,13.90
2022-09-28T20:32:02.199Z,13.90
2022-09-28T20:34:33.555Z,13.90
2022-09-28T20:37:01.897Z,13.90
2022-09-28T20:39:30.211Z,13.90
2022-09-28T20:41:59.526Z,14.00
2022-09-28T20:44:27.636Z,13.90
2022-09-28T20:46:56.232Z,14.00
2022-09-28T20:49:24.348Z,14.00
2022-09-28T20:51:53.906Z,13.90
2022-09-28T20:54:22.366Z,14.00
2022-09-28T20:56:50.441Z,14.00
2022-09-28T20:59:20.450Z,13.90
2022-09-28T21:01:48.689Z,14.00
2022-09-28T21:04:17.972Z,13.90
2022-09-28T21:06:46.253Z,13.90
2022-09-28T21:09:15.923Z,13.90
2022-09-28T21:11:44.133Z,13.80
2022-09-28T21:14:12.337Z,13.80
2022-09-28T21:16:40.591Z,13.80
2022-09-28T21:19:08.739Z,13.70
2022-09-28T21:21:36.841Z,13.70
2022-09-28T21:24:05.228Z,13.70
2022-09-28T21:26:35.156Z,13.70
2022-09-28T21:29:05.339Z,13.70
2022-09-28T21:31:38.680Z,13.70
2022-09-28T21:34:07.215Z,13.70
2022-09-28T21:36:35.659Z,13.70
2022-09-28T21:39:07.109Z,13.70
2022-09-28T21:41:40.049Z,13.70
2022-09-28T21:44:08.947Z,13.70
2022-09-28T21:46:38.172Z,13.60
2022-09-28T21:49:08.471Z,13.60
2022-09-28T21:51:37.580Z,13.60
2022-09-28T21:54:06.031Z,13.60
2022-09-28T21:56:34.317Z,13.60
2022-09-28T21:59:03.859Z,13.60
2022-09-28T22:01:32.046Z,13.50
2022-09-28T22:04:00.219Z,13.50
2022-09-28T22:06:29.254Z,13.50
2022-09-28T22:08:58.153Z,13.50
2022-09-28T22:11:28.392Z,13.50
2022-09-28T22:13:58.556Z,13.50
2022-09-28T22:16:30.015Z,13.40
2022-09-28T22:18:58.595Z,13.40
2022-09-28T22:21:28.418Z,13.30
2022-09-28T22:24:00.923Z,13.30
2022-09-28T22:26:30.972Z,13.30
2022-09-28T22:29:00.402Z,13.30
2022-09-28T22:31:32.345Z,13.20
2022-09-28T22:34:00.912Z,13.20
2022-09-28T22:36:29.771Z,13.20
2022-09-28T22:38:58.489Z,13.10
2022-09-28T22:41:27.120Z,13.10
2022-09-28T22:43:55.801Z,13.10
2022-09-28T22:46:25.962Z,13.10
2022-09-28T22:48:57.319Z,13.00
2022-09-28T22:51:26.865Z,13.00
2022-09-28T22:53:56.494Z,13.00
2022-09-28T22:56:25.044Z,13.00
2022-09-28T22:58:53.203Z,13.00
2022-09-28T23:01:23.298Z,13.00
2022-09-28T23:03:52.267Z,13.00
2022-09-28T23:06:23.864Z,13.00
2022-09-28T23:08:53.188Z,12.90
2022-09-28T23:11:21.650Z,13.00
2022-09-28T23:13:51.012Z,12.90
2022-09-28T23:16:20.001Z,12.90
2022-09-28T23:18:49.162Z,12.90
2022-09-28T23:21:19.822Z,12.90
2022-09-28T23:23:54.186Z,12.90
2022-09-28T23:26:24.550Z,12.80
2022-09-28T23:28:53.195Z,12.80
2022-09-28T23:31:23.799Z,12.80
2022-09-28T23:33:52.264Z,12.80
2022-09-28T23:36:20.423Z,12.70
2022-09-28T23:38:50.388Z,12.70
2022-09-28T23:41:19.016Z,12.70
2022-09-28T23:43:47.100Z,12.70
2022-09-28T23:46:20.441Z,12.70
2022-09-28T23:48:48.797Z,12.70
2022-09-28T23:51:16.956Z,12.70
2022-09-28T23:53:45.090Z,12.70
2022-09-28T23:56:15.443Z,12.60
2022-09-28T23:58:43.878Z,12.60
